Time;durP1;ratioP1;P1;durP2;ratioP2;P2;SDS_P1;SDS_P2;PMS_P1;PMS_P2;Temp;Humidity;BMP_temperature;BMP_pressure;BME280_temperature;BME280_humidity;BME280_pressure;Samples;Min_cycle;Max_cycle;Signal;HPM_P1;HPM_P2
2024/01/23 00:00:09;;;;;;;10.80;2.10;;;;;;;;;;8239079;28;20480;-59
2024/01/23 00:04:09;;;;;;;7.60;1.52;;;;;;;;;;8235495;28;20029;-58
2024/01/23 00:08:09;;;;;;;10.50;2.13;;;;;;;;;;8229952;28;20065;-58
2024/01/23 00:12:10;;;;;;;9.80;1.90;;;;;;;;;;8232715;28;20558;-57
2024/01/23 00:16:10;;;;;;;8.18;1.70;;;;;;;;;;8213962;28;20387;-58
2024/01/23 00:20:10;;;;;;;9.52;1.60;;;;;;;;;;8211567;28;20027;-58
2024/01/23 00:24:10;;;;;;;13.13;2.03;;;;;;;;;;8215324;28;20545;-59
2024/01/23 00:28:11;;;;;;;7.28;1.60;;;;;;;;;;8228736;28;20204;-58
2024/01/23 00:32:11;;;;;;;12.65;2.30;;;;;;;;;;8226034;28;20065;-58
2024/01/23 00:36:11;;;;;;;8.65;2.30;;;;;;;;;;8231155;28;20026;-58
2024/01/23 00:40:11;;;;;;;6.72;1.95;;;;;;;;;;8233658;28;20141;-57
2024/01/23 00:44:12;;;;;;;7.00;1.63;;;;;;;;;;8232683;28;21159;-57
2024/01/23 00:48:12;;;;;;;7.40;1.73;;;;;;;;;;8233558;28;20451;-57
2024/01/23 00:52:12;;;;;;;10.45;1.60;;;;;;;;;;8231799;28;20027;-57
2024/01/23 00:56:12;;;;;;;5.95;2.20;;;;;;;;;;8230442;28;20910;-57
2024/01/23 01:00:12;;;;;;;7.28;1.88;;;;;;;;;;8232374;28;20026;-58
2024/01/23 01:04:13;;;;;;;11.05;1.85;;;;;;;;;;8233583;28;20022;-56
2024/01/23 01:08:13;;;;;;;6.15;1.45;;;;;;;;;;8213721;28;20026;-56
2024/01/23 01:12:13;;;;;;;6.57;1.80;;;;;;;;;;8217317;28;20026;-56
2024/01/23 01:16:13;;;;;;;9.48;1.70;;;;;;;;;;8213233;28;20434;-57
2024/01/23 01:20:13;;;;;;;9.20;1.85;;;;;;;;;;8208665;28;20444;-57
2024/01/23 01:24:15;;;;;;;11.10;2.03;;;;;;;;;;8211451;28;20022;-58
2024/01/23 01:28:15;;;;;;;7.95;1.50;;;;;;;;;;8224269;28;20910;-60
2024/01/23 01:32:15;;;;;;;12.18;2.05;;;;;;;;;;8225670;28;20034;-59
2024/01/23 01:36:15;;;;;;;9.40;2.08;;;;;;;;;;8217586;28;20595;-58
2024/01/23 01:40:16;;;;;;;8.52;1.60;;;;;;;;;;8210591;28;20030;-58
2024/01/23 01:44:16;;;;;;;9.85;1.70;;;;;;;;;;8213478;28;20054;-57
2024/01/23 01:48:16;;;;;;;7.50;1.55;;;;;;;;;;8208737;28;20538;-57
2024/01/23 01:52:16;;;;;;;5.63;1.70;;;;;;;;;;8213146;28;20018;-58
2024/01/23 01:56:20;;;;;;;7.30;2.50;;;;;;;;;;8211307;28;20033;-58
2024/01/23 02:00:20;;;;;;;8.07;1.93;;;;;;;;;;8212217;28;20526;-57
2024/01/23 02:04:20;;;;;;;8.07;1.95;;;;;;;;;;8212621;28;20063;-58
2024/01/23 02:08:21;;;;;;;9.90;1.30;;;;;;;;;;8210425;28;20474;-58
2024/01/23 02:12:21;;;;;;;11.32;1.80;;;;;;;;;;8211740;28;20018;-58
2024/01/23 02:16:21;;;;;;;8.32;1.60;;;;;;;;;;8217260;28;20218;-57
2024/01/23 02:20:28;;;;;;;5.97;1.60;;;;;;;;;;8224679;28;20030;-58
2024/01/23 02:24:28;;;;;;;6.88;1.80;;;;;;;;;;8229990;28;20360;-58
2024/01/23 02:28:28;;;;;;;12.68;2.03;;;;;;;;;;8228873;28;20041;-58
2024/01/23 02:32:29;;;;;;;6.47;1.60;;;;;;;;;;8237570;28;20037;-58
2024/01/23 02:36:29;;;;;;;5.85;1.58;;;;;;;;;;8232825;28;20040;-58
2024/01/23 02:40:30;;;;;;;5.00;1.27;;;;;;;;;;8234133;28;20026;-59
2024/01/23 02:44:30;;;;;;;4.53;1.30;;;;;;;;;;8236073;28;20057;-58
2024/01/23 02:48:30;;;;;;;5.75;1.27;;;;;;;;;;8215871;28;20781;-59
2024/01/23 02:52:31;;;;;;;8.48;1.55;;;;;;;;;;8219288;28;20033;-58
2024/01/23 02:56:32;;;;;;;4.60;1.20;;;;;;;;;;8223774;28;20128;-58
2024/01/23 03:00:35;;;;;;;6.25;1.35;;;;;;;;;;8233160;28;20038;-58
2024/01/23 03:04:35;;;;;;;5.15;1.65;;;;;;;;;;8231649;28;20457;-59
2024/01/23 03:08:35;;;;;;;5.10;1.25;;;;;;;;;;8233519;28;20085;-57
2024/01/23 03:12:35;;;;;;;5.70;1.42;;;;;;;;;;8229998;28;20511;-57
2024/01/23 03:16:36;;;;;;;4.97;1.33;;;;;;;;;;8227611;28;20034;-59
2024/01/23 03:20:36;;;;;;;5.93;1.33;;;;;;;;;;8227527;28;20477;-58
2024/01/23 03:24:36;;;;;;;13.98;1.63;;;;;;;;;;8233134;28;20376;-57
2024/01/23 03:28:37;;;;;;;7.82;1.40;;;;;;;;;;8235808;28;20022;-58
2024/01/23 03:32:37;;;;;;;10.50;2.00;;;;;;;;;;8228549;28;20092;-59
2024/01/23 03:36:37;;;;;;;12.07;2.00;;;;;;;;;;8231228;28;20092;-59
2024/01/23 03:40:38;;;;;;;7.13;1.95;;;;;;;;;;8229575;28;20117;-59
2024/01/23 03:44:39;;;;;;;11.15;2.45;;;;;;;;;;8230942;28;20025;-58
2024/01/23 03:48:39;;;;;;;12.80;2.33;;;;;;;;;;8217768;28;20042;-57
2024/01/23 03:52:40;;;;;;;11.05;1.92;;;;;;;;;;8218781;28;20052;-57
2024/01/23 03:56:41;;;;;;;12.82;2.50;;;;;;;;;;8220157;28;20568;-58
2024/01/23 04:00:41;;;;;;;13.38;2.55;;;;;;;;;;8216039;28;20039;-58
2024/01/23 04:04:41;;;;;;;11.35;2.97;;;;;;;;;;8225275;28;20031;-56
2024/01/23 04:08:41;;;;;;;13.23;2.38;;;;;;;;;;8217122;28;20033;-57
2024/01/23 04:12:41;;;;;;;14.38;2.67;;;;;;;;;;8217637;28;20033;-58
2024/01/23 04:16:42;;;;;;;15.52;2.40;;;;;;;;;;8215040;28;20141;-59
2024/01/23 04:20:42;;;;;;;8.02;2.20;;;;;;;;;;8220266;28;20032;-59
2024/01/23 04:24:42;;;;;;;13.45;2.35;;;;;;;;;;8217186;28;20451;-58
2024/01/23 04:28:42;;;;;;;13.32;2.40;;;;;;;;;;8215032;28;20038;-58
2024/01/23 04:32:44;;;;;;;15.88;2.67;;;;;;;;;;8211765;28;20049;-59
2024/01/23 04:36:45;;;;;;;10.15;2.25;;;;;;;;;;8210670;28;20030;-58
2024/01/23 04:40:45;;;;;;;11.93;2.60;;;;;;;;;;8210428;28;20565;-60
2024/01/23 04:44:45;;;;;;;13.23;2.63;;;;;;;;;;8209277;28;20017;-58
2024/01/23 04:48:46;;;;;;;8.80;1.80;;;;;;;;;;8214288;28;20050;-57
2024/01/23 04:52:47;;;;;;;10.48;2.10;;;;;;;;;;8214118;28;20465;-57
2024/01/23 04:56:47;;;;;;;11.68;2.42;;;;;;;;;;8212918;28;20025;-56
2024/01/23 05:00:47;;;;;;;11.52;2.45;;;;;;;;;;8210362;28;22150;-56
2024/01/23 05:04:47;;;;;;;17.50;2.95;;;;;;;;;;8207107;28;20026;-56
2024/01/23 05:08:48;;;;;;;12.93;2.58;;;;;;;;;;8210607;28;20026;-58
2024/01/23 05:12:48;;;;;;;14.55;2.53;;;;;;;;;;8210736;28;22551;-57
2024/01/23 05:16:48;;;;;;;15.65;2.95;;;;;;;;;;8210527;28;20517;-58
2024/01/23 05:20:48;;;;;;;10.35;2.30;;;;;;;;;;8207611;28;20813;-58
2024/01/23 05:24:49;;;;;;;15.73;2.53;;;;;;;;;;8209653;28;20960;-59
2024/01/23 05:28:49;;;;;;;8.27;2.42;;;;;;;;;;8214476;28;21260;-58
2024/01/23 05:32:50;;;;;;;9.15;2.80;;;;;;;;;;8218806;28;20076;-58
2024/01/23 05:36:50;;;;;;;15.40;2.45;;;;;;;;;;8213693;28;20526;-59
2024/01/23 05:40:50;;;;;;;13.47;2.40;;;;;;;;;;8208635;28;20153;-60
2024/01/23 05:44:50;;;;;;;16.05;2.33;;;;;;;;;;8209673;28;22267;-60
2024/01/23 05:48:51;;;;;;;13.80;3.28;;;;;;;;;;8220952;28;20046;-59
2024/01/23 05:52:53;;;;;;;14.35;2.80;;;;;;;;;;8228588;28;20498;-59
2024/01/23 05:56:53;;;;;;;19.38;3.33;;;;;;;;;;8226002;28;20030;-58
2024/01/23 06:00:53;;;;;;;17.02;2.95;;;;;;;;;;8233544;28;20721;-58
2024/01/23 06:04:53;;;;;;;15.35;2.25;;;;;;;;;;8231925;28;20045;-59
2024/01/23 06:08:53;;;;;;;19.20;3.35;;;;;;;;;;8221689;28;20057;-57
2024/01/23 06:12:54;;;;;;;16.40;2.65;;;;;;;;;;8218621;28;20029;-58
2024/01/23 06:16:54;;;;;;;14.70;3.05;;;;;;;;;;8217276;28;20031;-57
2024/01/23 06:20:54;;;;;;;16.05;3.55;;;;;;;;;;8222746;28;20027;-59
2024/01/23 06:25:05;;;;;;;13.95;2.70;;;;;;;;;;8221602;28;20030;-58
2024/01/23 06:29:05;;;;;;;11.85;2.97;;;;;;;;;;8219780;28;20582;-57
2024/01/23 06:33:05;;;;;;;15.48;2.40;;;;;;;;;;8218915;28;20137;-58
2024/01/23 06:37:06;;;;;;;11.00;2.55;;;;;;;;;;8214629;28;20503;-58
2024/01/23 06:41:06;;;;;;;17.33;2.67;;;;;;;;;;8217820;28;20100;-57
2024/01/23 06:45:06;;;;;;;12.00;2.28;;;;;;;;;;8218254;28;20031;-57
2024/01/23 06:49:06;;;;;;;10.93;2.10;;;;;;;;;;8220030;28;20511;-57
2024/01/23 06:53:06;;;;;;;11.30;2.42;;;;;;;;;;8220894;28;20490;-57
2024/01/23 06:57:07;;;;;;;17.88;2.97;;;;;;;;;;8222825;28;20026;-57
2024/01/23 07:01:07;;;;;;;13.05;2.58;;;;;;;;;;8235715;28;20048;-56
2024/01/23 07:05:07;;;;;;;11.13;2.15;;;;;;;;;;8232747;28;20022;-57
2024/01/23 07:09:08;;;;;;;10.20;1.85;;;;;;;;;;8235337;28;20069;-58
2024/01/23 07:13:08;;;;;;;15.10;2.88;;;;;;;;;;8231362;28;20266;-57
2024/01/23 07:17:08;;;;;;;17.52;2.90;;;;;;;;;;8236787;28;20046;-58
2024/01/23 07:21:09;;;;;;;10.07;2.70;;;;;;;;;;8239954;28;20483;-58
2024/01/23 07:25:10;;;;;;;12.77;1.95;;;;;;;;;;8245723;28;20034;-58
2024/01/23 07:29:10;;;;;;;10.93;1.90;;;;;;;;;;8235535;28;20555;-58
2024/01/23 07:33:10;;;;;;;11.45;2.30;;;;;;;;;;8227716;28;20066;-59
2024/01/23 07:37:10;;;;;;;10.30;2.00;;;;;;;;;;8229237;28;20388;-58
2024/01/23 07:41:11;;;;;;;11.60;1.85;;;;;;;;;;8231307;28;20269;-58
2024/01/23 07:45:11;;;;;;;15.90;2.50;;;;;;;;;;8232487;28;20027;-58
2024/01/23 07:49:11;;;;;;;12.05;1.95;;;;;;;;;;8227878;28;20029;-58
2024/01/23 07:53:12;;;;;;;14.57;2.33;;;;;;;;;;8229170;28;20515;-58
2024/01/23 07:57:12;;;;;;;11.05;2.10;;;;;;;;;;8232743;28;20065;-58
2024/01/23 08:01:12;;;;;;;9.68;1.92;;;;;;;;;;8229865;28;20038;-57
2024/01/23 08:05:12;;;;;;;15.05;2.28;;;;;;;;;;8230865;28;20037;-58
2024/01/23 08:09:13;;;;;;;13.50;1.98;;;;;;;;;;8235904;28;20509;-57
2024/01/23 08:13:14;;;;;;;12.90;2.42;;;;;;;;;;8228853;28;20026;-57
2024/01/23 08:17:14;;;;;;;14.02;2.20;;;;;;;;;;8230242;28;20041;-58
2024/01/23 08:21:14;;;;;;;11.13;1.92;;;;;;;;;;8229927;28;20546;-58
2024/01/23 08:25:15;;;;;;;13.43;2.50;;;;;;;;;;8228454;28;20149;-56
2024/01/23 08:29:15;;;;;;;12.10;2.38;;;;;;;;;;8225415;28;20511;-57
2024/01/23 08:33:19;;;;;;;11.00;2.17;;;;;;;;;;8229511;28;20030;-58
2024/01/23 08:37:20;;;;;;;11.95;2.13;;;;;;;;;;8228693;28;20339;-58
2024/01/23 08:41:20;;;;;;;11.60;2.40;;;;;;;;;;8225557;28;20364;-58
2024/01/23 08:45:20;;;;;;;9.70;2.17;;;;;;;;;;8224597;28;20056;-58
2024/01/23 08:49:20;;;;;;;10.48;2.15;;;;;;;;;;8218942;28;20195;-58
2024/01/23 08:53:20;;;;;;;11.32;2.58;;;;;;;;;;8226762;28;20022;-58
2024/01/23 08:57:22;;;;;;;12.55;2.00;;;;;;;;;;8225575;28;20587;-58
2024/01/23 09:01:23;;;;;;;12.18;2.08;;;;;;;;;;8227255;28;20038;-57
2024/01/23 09:05:23;;;;;;;9.73;2.05;;;;;;;;;;8225146;28;20029;-58
2024/01/23 09:09:23;;;;;;;10.65;2.28;;;;;;;;;;8228039;28;20136;-57
2024/01/23 09:13:24;;;;;;;9.60;2.17;;;;;;;;;;8228820;28;20026;-58
2024/01/23 09:17:24;;;;;;;12.93;2.13;;;;;;;;;;8227524;28;20066;-59
2024/01/23 09:21:24;;;;;;;9.52;2.03;;;;;;;;;;8225723;28;20486;-58
2024/01/23 09:25:24;;;;;;;9.80;2.13;;;;;;;;;;8226050;28;20023;-57
2024/01/23 09:29:25;;;;;;;12.18;2.40;;;;;;;;;;8224573;28;20022;-58
2024/01/23 09:33:25;;;;;;;10.60;2.40;;;;;;;;;;8226632;28;20129;-58
2024/01/23 09:37:25;;;;;;;12.85;2.13;;;;;;;;;;8229988;28;20140;-59
2024/01/23 09:41:26;;;;;;;9.35;1.85;;;;;;;;;;8228929;28;20030;-57
2024/01/23 09:45:28;;;;;;;9.20;2.08;;;;;;;;;;8231614;28;20060;-58
2024/01/23 09:49:30;;;;;;;9.63;1.90;;;;;;;;;;8235364;28;20861;-57
2024/01/23 09:53:31;;;;;;;9.25;2.25;;;;;;;;;;8230431;28;20053;-58
2024/01/23 09:57:32;;;;;;;12.85;2.15;;;;;;;;;;8232042;28;20084;-59
2024/01/23 10:01:33;;;;;;;13.23;2.67;;;;;;;;;;8229512;28;20563;-58
2024/01/23 10:05:35;;;;;;;10.60;2.53;;;;;;;;;;8233927;28;20033;-59
2024/01/23 10:09:38;;;;;;;12.55;2.90;;;;;;;;;;8234367;28;20095;-58
2024/01/23 10:13:41;;;;;;;17.27;2.92;;;;;;;;;;8229926;28;20023;-59
2024/01/23 10:17:42;;;;;;;15.68;2.47;;;;;;;;;;8229705;28;20546;-59
2024/01/23 10:21:42;;;;;;;9.57;2.17;;;;;;;;;;8226717;28;20308;-60
2024/01/23 10:25:43;;;;;;;15.57;2.80;;;;;;;;;;8228673;28;20034;-59
2024/01/23 10:29:43;;;;;;;11.27;2.63;;;;;;;;;;8229140;28;20076;-58
2024/01/23 10:33:44;;;;;;;12.32;2.47;;;;;;;;;;8226824;28;20125;-58
2024/01/23 10:37:44;;;;;;;14.52;2.53;;;;;;;;;;8231482;28;20061;-57
2024/01/23 10:41:44;;;;;;;10.95;2.17;;;;;;;;;;8230571;28;20520;-60
2024/01/23 10:45:45;;;;;;;11.30;2.10;;;;;;;;;;8227586;28;20916;-59
2024/01/23 10:49:45;;;;;;;15.88;2.67;;;;;;;;;;8247108;28;20317;-60
2024/01/23 10:53:49;;;;;;;15.70;2.38;;;;;;;;;;8252153;28;20048;-59
2024/01/23 10:57:51;;;;;;;14.93;2.80;;;;;;;;;;8250436;28;20083;-59
2024/01/23 11:01:55;;;;;;;11.65;2.65;;;;;;;;;;8252163;28;22610;-58
2024/01/23 11:05:57;;;;;;;13.65;2.72;;;;;;;;;;8249748;28;20038;-59
2024/01/23 11:10:05;;;;;;;13.18;2.60;;;;;;;;;;8228491;28;20037;-59
2024/01/23 11:14:23;;;;;;;12.60;2.03;;;;;;;;;;8228644;28;20030;-59
2024/01/23 11:18:26;;;;;;;17.35;2.92;;;;;;;;;;8224894;28;20042;-58
2024/01/23 11:22:26;;;;;;;11.27;3.00;;;;;;;;;;8227468;28;20014;-58
2024/01/23 11:26:27;;;;;;;10.30;2.63;;;;;;;;;;8228042;28;20026;-58
2024/01/23 11:30:27;;;;;;;15.27;2.70;;;;;;;;;;8229725;28;20069;-58
2024/01/23 11:34:27;;;;;;;20.10;3.15;;;;;;;;;;8234569;28;20025;-59
2024/01/23 11:38:37;;;;;;;14.30;2.65;;;;;;;;;;8235894;28;20025;-59
2024/01/23 11:42:40;;;;;;;10.65;2.40;;;;;;;;;;8251198;28;20026;-60
2024/01/23 11:46:41;;;;;;;15.13;2.60;;;;;;;;;;8240145;28;20052;-59
2024/01/23 11:50:43;;;;;;;14.05;3.00;;;;;;;;;;8237683;28;20032;-58
2024/01/23 11:54:43;;;;;;;9.95;2.00;;;;;;;;;;8239875;28;20030;-58
2024/01/23 11:58:44;;;;;;;13.75;2.65;;;;;;;;;;8229493;28;20049;-58
2024/01/23 12:02:45;;;;;;;11.05;2.38;;;;;;;;;;8215335;28;20030;-59
2024/01/23 12:06:45;;;;;;;11.52;2.70;;;;;;;;;;8216100;28;20029;-58
2024/01/23 12:10:45;;;;;;;15.63;2.58;;;;;;;;;;8217488;28;20107;-57
2024/01/23 12:14:45;;;;;;;12.95;2.10;;;;;;;;;;8210785;28;20041;-58
2024/01/23 12:18:54;;;;;;;11.07;2.28;;;;;;;;;;8211322;28;20037;-58
2024/01/23 12:22:54;;;;;;;15.88;3.95;;;;;;;;;;8215029;28;20076;-58
2024/01/23 12:26:54;;;;;;;14.20;3.00;;;;;;;;;;8215709;28;20030;-58
2024/01/23 12:30:55;;;;;;;14.02;2.50;;;;;;;;;;8203780;28;20124;-57
2024/01/23 12:34:56;;;;;;;11.13;2.88;;;;;;;;;;8212299;28;20025;-59
2024/01/23 12:38:56;;;;;;;14.40;2.60;;;;;;;;;;8213795;28;20040;-58
2024/01/23 12:42:56;;;;;;;13.95;2.97;;;;;;;;;;8210745;28;20034;-56
2024/01/23 12:46:57;;;;;;;12.05;2.53;;;;;;;;;;8213702;28;20573;-58
2024/01/23 12:50:57;;;;;;;22.35;3.47;;;;;;;;;;8214945;28;20037;-59
2024/01/23 12:54:57;;;;;;;10.37;2.47;;;;;;;;;;8211669;28;20097;-58
2024/01/23 12:58:58;;;;;;;15.10;2.25;;;;;;;;;;8220004;28;20277;-58
2024/01/23 13:02:58;;;;;;;15.63;3.10;;;;;;;;;;8211921;28;20467;-59
2024/01/23 13:06:58;;;;;;;13.73;2.83;;;;;;;;;;8210858;28;20303;-60
2024/01/23 13:10:58;;;;;;;18.00;2.90;;;;;;;;;;8209600;28;20208;-59
2024/01/23 13:14:59;;;;;;;21.48;3.33;;;;;;;;;;8213750;28;20037;-58
2024/01/23 13:18:59;;;;;;;12.43;2.45;;;;;;;;;;8219520;28;20034;-59
2024/01/23 13:23:00;;;;;;;15.95;2.80;;;;;;;;;;8242383;28;20555;-59
2024/01/23 13:27:06;;;;;;;20.75;3.03;;;;;;;;;;8229982;28;20018;-58
2024/01/23 13:31:07;;;;;;;17.95;3.47;;;;;;;;;;8213632;28;20030;-62
2024/01/23 13:35:07;;;;;;;18.50;3.25;;;;;;;;;;8213160;28;20097;-58
2024/01/23 13:39:13;;;;;;;16.90;2.90;;;;;;;;;;8212984;28;20479;-58
2024/01/23 13:43:13;;;;;;;16.65;2.72;;;;;;;;;;8227995;28;20076;-57
2024/01/23 13:47:13;;;;;;;11.85;2.97;;;;;;;;;;8210978;28;20116;-59
2024/01/23 13:51:13;;;;;;;18.30;3.10;;;;;;;;;;8209276;28;20442;-58
2024/01/23 13:55:13;;;;;;;17.73;3.45;;;;;;;;;;8210375;28;20018;-58
2024/01/23 13:59:14;;;;;;;19.50;3.63;;;;;;;;;;8210098;28;20274;-59
2024/01/23 14:03:14;;;;;;;20.80;3.05;;;;;;;;;;8230375;28;20037;-59
2024/01/23 14:07:15;;;;;;;16.67;2.97;;;;;;;;;;8237905;28;20031;-59
2024/01/23 14:11:15;;;;;;;16.83;3.28;;;;;;;;;;8231290;28;20018;-60
2024/01/23 14:15:17;;;;;;;20.67;3.75;;;;;;;;;;8229412;28;20471;-58
2024/01/23 14:19:17;;;;;;;18.95;3.63;;;;;;;;;;8221423;28;20014;-60
2024/01/23 14:23:18;;;;;;;19.05;2.80;;;;;;;;;;8208440;28;20274;-58
2024/01/23 14:27:18;;;;;;;18.05;3.33;;;;;;;;;;8210525;28;20591;-58
2024/01/23 14:31:18;;;;;;;16.05;3.05;;;;;;;;;;8210699;28;20035;-58
2024/01/23 14:35:19;;;;;;;19.90;3.50;;;;;;;;;;8211003;28;20035;-59
2024/01/23 14:39:20;;;;;;;17.27;3.28;;;;;;;;;;8207102;28;20570;-57
2024/01/23 14:43:20;;;;;;;23.23;3.65;;;;;;;;;;8209445;28;20153;-59
2024/01/23 14:47:21;;;;;;;21.92;3.33;;;;;;;;;;8203576;28;20042;-57
2024/01/23 14:51:21;;;;;;;14.75;3.03;;;;;;;;;;8206564;28;20049;-58
2024/01/23 14:55:21;;;;;;;18.45;3.30;;;;;;;;;;8203296;28;20026;-58
2024/01/23 14:59:22;;;;;;;28.30;4.75;;;;;;;;;;8201732;28;20057;-58
2024/01/23 15:03:22;;;;;;;19.47;4.07;;;;;;;;;;8205679;28;20042;-59
2024/01/23 15:07:23;;;;;;;20.50;3.38;;;;;;;;;;8202906;28;20684;-58
2024/01/23 15:11:23;;;;;;;18.08;2.97;;;;;;;;;;8216296;28;20091;-59
2024/01/23 15:15:24;;;;;;;20.45;3.83;;;;;;;;;;8224764;28;20046;-59
2024/01/23 15:19:24;;;;;;;15.65;3.30;;;;;;;;;;8225446;28;20036;-60
2024/01/23 15:23:25;;;;;;;16.38;3.45;;;;;;;;;;8233442;28;20617;-60
2024/01/23 15:27:25;;;;;;;15.13;2.97;;;;;;;;;;8224890;28;20135;-59
2024/01/23 15:31:25;;;;;;;12.13;3.17;;;;;;;;;;8208961;28;20038;-59
2024/01/23 15:35:25;;;;;;;19.60;3.28;;;;;;;;;;8206010;28;20022;-59
2024/01/23 15:39:25;;;;;;;11.00;2.25;;;;;;;;;;8211639;28;20461;-58
2024/01/23 15:43:25;;;;;;;19.15;3.15;;;;;;;;;;8213429;28;20458;-58
2024/01/23 15:47:27;;;;;;;12.13;2.53;;;;;;;;;;8214540;28;20053;-57
2024/01/23 15:51:27;;;;;;;16.30;3.33;;;;;;;;;;8229743;28;20018;-58
2024/01/23 15:55:27;;;;;;;16.40;3.60;;;;;;;;;;8239085;28;20516;-58
2024/01/23 15:59:30;;;;;;;25.20;3.25;;;;;;;;;;8237242;28;20057;-58
2024/01/23 16:03:30;;;;;;;11.95;2.42;;;;;;;;;;8235754;28;20034;-60
2024/01/23 16:07:30;;;;;;;11.00;2.67;;;;;;;;;;8236537;28;20385;-57
2024/01/23 16:11:30;;;;;;;12.45;2.33;;;;;;;;;;8232327;28;20036;-59
2024/01/23 16:15:31;;;;;;;14.18;3.00;;;;;;;;;;8229740;28;20038;-58
2024/01/23 16:19:31;;;;;;;18.25;4.30;;;;;;;;;;8222742;28;20617;-60
2024/01/23 16:23:32;;;;;;;13.95;3.00;;;;;;;;;;8204479;28;20049;-60
2024/01/23 16:27:32;;;;;;;11.93;2.38;;;;;;;;;;8207972;28;20445;-59
2024/01/23 16:31:32;;;;;;;13.47;2.80;;;;;;;;;;8203988;28;20132;-60
2024/01/23 16:35:32;;;;;;;8.50;2.92;;;;;;;;;;8209137;28;20030;-59
2024/01/23 16:39:33;;;;;;;10.63;2.45;;;;;;;;;;8205833;28;20583;-59
2024/01/23 16:43:33;;;;;;;15.40;3.33;;;;;;;;;;8204443;28;20042;-61
2024/01/23 16:47:33;;;;;;;14.80;2.67;;;;;;;;;;8203175;28;20046;-57
2024/01/23 16:51:33;;;;;;;15.95;2.92;;;;;;;;;;8203721;28;20614;-59
2024/01/23 16:55:33;;;;;;;12.52;2.50;;;;;;;;;;8203970;28;20227;-59
2024/01/23 16:59:34;;;;;;;17.88;2.70;;;;;;;;;;8201769;28;20661;-57
2024/01/23 17:03:34;;;;;;;12.65;2.80;;;;;;;;;;8201549;28;20596;-56
2024/01/23 17:07:34;;;;;;;18.20;3.20;;;;;;;;;;8202390;28;20421;-57
2024/01/23 17:11:34;;;;;;;15.63;3.15;;;;;;;;;;8190424;28;20089;-57
2024/01/23 17:15:35;;;;;;;13.23;2.47;;;;;;;;;;8206032;28;20034;-58
2024/01/23 17:19:35;;;;;;;9.43;2.17;;;;;;;;;;8203177;28;20017;-58
2024/01/23 17:23:35;;;;;;;12.02;2.20;;;;;;;;;;8204847;28;20821;-57
2024/01/23 17:27:35;;;;;;;11.90;2.72;;;;;;;;;;8203982;28;20861;-58
2024/01/23 17:31:36;;;;;;;9.35;2.53;;;;;;;;;;8203571;28;20795;-57
2024/01/23 17:35:39;;;;;;;17.13;3.00;;;;;;;;;;8205335;28;20206;-58
2024/01/23 17:39:39;;;;;;;11.45;2.22;;;;;;;;;;8202755;28;20096;-58
2024/01/23 17:43:40;;;;;;;18.10;2.70;;;;;;;;;;8209509;28;20037;-58
2024/01/23 17:47:40;;;;;;;16.33;2.88;;;;;;;;;;8202868;28;20819;-57
2024/01/23 17:51:40;;;;;;;11.55;2.10;;;;;;;;;;8202750;28;20774;-56
2024/01/23 17:55:40;;;;;;;11.18;2.42;;;;;;;;;;8206630;28;20022;-58
2024/01/23 17:59:40;;;;;;;14.00;2.92;;;;;;;;;;8208478;28;20323;-59
2024/01/23 18:03:41;;;;;;;18.55;3.08;;;;;;;;;;8217878;28;20092;-60
2024/01/23 18:07:41;;;;;;;9.73;2.13;;;;;;;;;;8211528;28;20022;-59
2024/01/23 18:11:41;;;;;;;12.10;2.35;;;;;;;;;;8233540;28;20281;-59
2024/01/23 18:15:42;;;;;;;14.73;2.60;;;;;;;;;;8238491;28;20038;-58
2024/01/23 18:19:43;;;;;;;19.02;3.10;;;;;;;;;;8238536;28;20285;-59
2024/01/23 18:23:43;;;;;;;15.27;2.97;;;;;;;;;;8243113;28;20065;-59
2024/01/23 18:27:43;;;;;;;12.40;3.00;;;;;;;;;;8241077;28;20030;-58
2024/01/23 18:31:43;;;;;;;16.90;3.40;;;;;;;;;;8233619;28;20185;-58
2024/01/23 18:35:44;;;;;;;17.40;3.60;;;;;;;;;;8242709;28;20310;-58
2024/01/23 18:39:44;;;;;;;13.25;2.58;;;;;;;;;;8241810;28;20060;-58
2024/01/23 18:43:44;;;;;;;13.85;2.97;;;;;;;;;;8212861;28;20427;-58
2024/01/23 18:47:44;;;;;;;17.08;3.38;;;;;;;;;;8209504;28;20046;-58
2024/01/23 18:51:44;;;;;;;9.98;2.30;;;;;;;;;;8204005;28;20112;-58
2024/01/23 18:55:45;;;;;;;14.68;3.03;;;;;;;;;;8209170;28;20018;-59
2024/01/23 18:59:45;;;;;;;16.27;3.22;;;;;;;;;;8207978;28;20030;-60
2024/01/23 19:03:45;;;;;;;10.55;2.25;;;;;;;;;;8206600;28;20046;-59
2024/01/23 19:07:45;;;;;;;11.10;2.67;;;;;;;;;;8204586;28;20096;-59
2024/01/23 19:11:46;;;;;;;8.07;2.10;;;;;;;;;;8207180;28;20045;-58
2024/01/23 19:15:46;;;;;;;8.95;2.35;;;;;;;;;;8202670;28;20577;-58
2024/01/23 19:19:46;;;;;;;11.80;2.22;;;;;;;;;;8206290;28;20125;-58
2024/01/23 19:23:47;;;;;;;19.80;3.23;;;;;;;;;;8210699;28;21666;-58
2024/01/23 19:27:47;;;;;;;9.07;2.20;;;;;;;;;;8206664;28;20536;-57
2024/01/23 19:31:48;;;;;;;15.98;2.88;;;;;;;;;;8207066;28;20349;-56
2024/01/23 19:35:48;;;;;;;16.10;2.33;;;;;;;;;;8209415;28;20434;-57
2024/01/23 19:39:48;;;;;;;11.70;2.58;;;;;;;;;;8208943;28;21043;-58
2024/01/23 19:43:49;;;;;;;16.60;2.88;;;;;;;;;;8207613;28;20614;-56
2024/01/23 19:47:49;;;;;;;14.23;2.53;;;;;;;;;;8206699;28;20678;-56
2024/01/23 19:51:49;;;;;;;12.20;2.72;;;;;;;;;;8207979;28;20597;-57
2024/01/23 19:55:49;;;;;;;12.63;2.60;;;;;;;;;;8209304;28;21229;-59
2024/01/23 19:59:49;;;;;;;18.05;3.20;;;;;;;;;;8208778;28;20604;-58
2024/01/23 20:03:50;;;;;;;13.23;3.17;;;;;;;;;;8209397;28;20045;-58
2024/01/23 20:07:50;;;;;;;15.60;2.88;;;;;;;;;;8207745;28;20450;-58
2024/01/23 20:11:50;;;;;;;13.57;2.95;;;;;;;;;;8217784;28;20473;-59
2024/01/23 20:15:51;;;;;;;13.70;3.55;;;;;;;;;;8228547;28;20101;-61
2024/01/23 20:19:51;;;;;;;17.77;3.15;;;;;;;;;;8237534;28;20033;-59
2024/01/23 20:23:51;;;;;;;17.42;3.85;;;;;;;;;;8210516;28;22148;-60
2024/01/23 20:27:51;;;;;;;16.00;2.70;;;;;;;;;;8205868;28;20724;-59
2024/01/23 20:31:52;;;;;;;14.98;2.53;;;;;;;;;;8202251;28;20565;-58
2024/01/23 20:35:53;;;;;;;15.38;3.15;;;;;;;;;;8201497;28;20982;-59
2024/01/23 20:39:55;;;;;;;13.20;2.50;;;;;;;;;;8204930;28;20041;-57
2024/01/23 20:43:55;;;;;;;13.75;2.72;;;;;;;;;;8206396;28;20483;-58
2024/01/23 20:47:56;;;;;;;16.35;2.78;;;;;;;;;;8204573;28;20211;-58
2024/01/23 20:51:56;;;;;;;12.65;2.65;;;;;;;;;;8204488;28;20556;-58
2024/01/23 20:55:56;;;;;;;13.13;2.75;;;;;;;;;;8206944;28;20546;-58
2024/01/23 20:59:56;;;;;;;9.63;2.30;;;;;;;;;;8200622;28;20464;-58
2024/01/23 21:03:58;;;;;;;14.05;3.20;;;;;;;;;;8227537;28;20026;-58
2024/01/23 21:08:00;;;;;;;14.48;2.65;;;;;;;;;;8234834;28;20060;-58
2024/01/23 21:12:00;;;;;;;15.20;2.75;;;;;;;;;;8236615;28;20037;-58
2024/01/23 21:16:00;;;;;;;12.07;2.70;;;;;;;;;;8233378;28;20034;-59
2024/01/23 21:20:01;;;;;;;14.77;2.72;;;;;;;;;;8233011;28;20291;-59
2024/01/23 21:24:01;;;;;;;17.08;2.72;;;;;;;;;;8216446;28;20058;-59
2024/01/23 21:28:01;;;;;;;13.70;2.55;;;;;;;;;;8210445;28;20199;-59
2024/01/23 21:32:03;;;;;;;12.10;2.53;;;;;;;;;;8206452;28;20030;-57
2024/01/23 21:36:03;;;;;;;12.95;2.53;;;;;;;;;;8206231;28;20022;-58
2024/01/23 21:40:06;;;;;;;7.25;2.08;;;;;;;;;;8205155;28;20026;-58
2024/01/23 21:44:06;;;;;;;11.57;2.53;;;;;;;;;;8222968;28;20494;-59
2024/01/23 21:48:07;;;;;;;16.45;2.90;;;;;;;;;;8230434;28;20124;-59
2024/01/23 21:52:07;;;;;;;12.48;2.70;;;;;;;;;;8238064;28;20499;-59
2024/01/23 21:56:07;;;;;;;14.15;3.15;;;;;;;;;;8231392;28;20031;-59
2024/01/23 22:00:11;;;;;;;16.50;2.80;;;;;;;;;;8230125;28;20144;-60
2024/01/23 22:04:11;;;;;;;12.32;2.78;;;;;;;;;;8231122;28;20026;-60
2024/01/23 22:08:12;;;;;;;14.32;2.55;;;;;;;;;;8233555;28;20474;-59
2024/01/23 22:12:12;;;;;;;12.32;2.75;;;;;;;;;;8228029;28;20042;-60
2024/01/23 22:16:13;;;;;;;14.27;2.95;;;;;;;;;;8209587;28;20616;-60
2024/01/23 22:20:13;;;;;;;11.50;1.90;;;;;;;;;;8215814;28;20018;-59
2024/01/23 22:24:13;;;;;;;10.88;2.10;;;;;;;;;;8214858;28;20546;-60
2024/01/23 22:28:13;;;;;;;11.20;2.58;;;;;;;;;;8208154;28;20022;-59
2024/01/23 22:32:14;;;;;;;13.65;2.38;;;;;;;;;;8214043;28;20049;-58
2024/01/23 22:36:15;;;;;;;8.45;2.20;;;;;;;;;;8206345;28;20113;-58
2024/01/23 22:40:15;;;;;;;12.18;2.17;;;;;;;;;;8211538;28;20221;-58
2024/01/23 22:44:15;;;;;;;10.75;2.15;;;;;;;;;;8211907;28;20620;-60
2024/01/23 22:48:16;;;;;;;13.40;3.05;;;;;;;;;;8213289;28;20204;-59
2024/01/23 22:52:17;;;;;;;10.18;2.20;;;;;;;;;;8217116;28;21610;-59
2024/01/23 22:56:17;;;;;;;10.68;2.28;;;;;;;;;;8242199;28;20025;-59
2024/01/23 23:00:19;;;;;;;10.40;2.28;;;;;;;;;;8239375;28;20057;-59
2024/01/23 23:04:19;;;;;;;8.27;1.92;;;;;;;;;;8236351;28;20579;-58
2024/01/23 23:08:20;;;;;;;10.18;2.47;;;;;;;;;;8239452;28;20045;-59
2024/01/23 23:12:21;;;;;;;7.43;2.33;;;;;;;;;;8236796;28;20025;-59
2024/01/23 23:16:21;;;;;;;10.57;1.85;;;;;;;;;;8235089;28;20366;-59
2024/01/23 23:20:21;;;;;;;8.52;2.10;;;;;;;;;;8239190;28;20051;-59
2024/01/23 23:24:22;;;;;;;5.97;1.85;;;;;;;;;;8223680;28;20026;-58
2024/01/23 23:28:22;;;;;;;5.18;1.77;;;;;;;;;;8218112;28;20109;-57
2024/01/23 23:32:23;;;;;;;6.53;1.60;;;;;;;;;;8217474;28;20823;-58
2024/01/23 23:36:23;;;;;;;6.65;1.70;;;;;;;;;;8216781;28;20501;-58
2024/01/23 23:40:23;;;;;;;6.78;1.50;;;;;;;;;;8221818;28;20030;-58
2024/01/23 23:44:23;;;;;;;3.85;1.35;;;;;;;;;;8219359;28;20061;-58